Time;durP1;ratioP1;P1;durP2;ratioP2;P2;SDS_P1;SDS_P2;PMS_P1;PMS_P2;Temp;Humidity;BMP_temperature;BMP_pressure;BME280_temperature;BME280_humidity;BME280_pressure;Samples;Min_cycle;Max_cycle;Signal;HPM_P1;HPM_P2
2023/04/09 00:01:39;;;;;;;4.82;1.52;;;;;;;9.37;72.48;101287.56;5045978;28;20053;-45
2023/04/09 00:04:05;;;;;;;5.72;1.85;;;;;;;9.34;72.43;101290.19;5041733;28;20050;-46
2023/04/09 00:06:32;;;;;;;7.80;2.13;;;;;;;9.30;72.47;101290.00;5032494;28;20064;-46
2023/04/09 00:08:59;;;;;;;5.50;1.80;;;;;;;9.26;72.14;101297.34;5047992;28;20041;-51
2023/04/09 00:11:26;;;;;;;3.25;1.55;;;;;;;9.22;72.32;101284.47;5037760;28;20499;-48
2023/04/09 00:13:52;;;;;;;4.60;2.08;;;;;;;9.21;72.11;101280.09;5048368;28;20040;-46
2023/04/09 00:16:19;;;;;;;2.83;1.75;;;;;;;9.19;72.14;101274.88;5049218;28;20055;-46
2023/04/09 00:18:46;;;;;;;4.45;1.65;;;;;;;9.17;72.08;101260.59;5045499;28;20507;-46
2023/04/09 00:21:14;;;;;;;3.55;1.60;;;;;;;9.15;72.19;101249.06;5048956;28;20052;-46
2023/04/09 00:23:42;;;;;;;5.63;2.00;;;;;;;9.11;71.97;101235.06;5044768;28;20056;-46
2023/04/09 00:26:09;;;;;;;3.40;2.20;;;;;;;9.09;72.08;101234.59;5037095;28;20120;-46
2023/04/09 00:28:36;;;;;;;5.47;2.03;;;;;;;9.07;72.21;101234.09;5036604;28;20433;-46
2023/04/09 00:31:03;;;;;;;7.40;3.38;;;;;;;9.07;72.20;101225.81;5048910;28;20053;-46
2023/04/09 00:33:30;;;;;;;8.55;2.33;;;;;;;9.06;72.20;101234.41;5048988;28;20056;-46
2023/04/09 00:35:56;;;;;;;8.15;2.28;;;;;;;9.04;72.50;101237.50;5048948;28;20064;-46
2023/04/09 00:38:23;;;;;;;3.50;1.80;;;;;;;9.04;72.68;101231.16;5048626;28;20045;-46
2023/04/09 00:40:50;;;;;;;4.90;2.63;;;;;;;9.03;73.03;101224.81;5036401;28;20087;-48
2023/04/09 00:43:17;;;;;;;7.25;1.92;;;;;;;9.01;73.20;101220.75;5047836;28;20051;-46
2023/04/09 00:45:44;;;;;;;5.05;2.30;;;;;;;8.99;73.51;101223.84;5048164;28;20491;-46
2023/04/09 00:48:13;;;;;;;8.07;2.20;;;;;;;9.00;73.74;101227.44;5048659;28;20063;-46
2023/04/09 00:50:41;;;;;;;12.85;3.42;;;;;;;8.97;73.99;101225.31;5048156;28;20052;-46
2023/04/09 00:53:09;;;;;;;6.25;2.30;;;;;;;8.96;73.99;101224.50;5048880;28;20044;-46
2023/04/09 00:55:39;;;;;;;5.70;2.88;;;;;;;8.97;73.98;101219.78;5037906;28;20476;-47
2023/04/09 00:58:06;;;;;;;8.77;2.60;;;;;;;8.97;74.18;101217.84;5025874;28;20045;-46
2023/04/09 01:00:33;;;;;;;7.78;2.92;;;;;;;8.96;74.26;101216.22;5044600;28;20048;-48
2023/04/09 01:03:01;;;;;;;5.15;3.17;;;;;;;8.96;74.63;101218.16;5045996;28;20076;-48
2023/04/09 01:05:40;;;;;;;9.35;2.83;;;;;;;8.94;74.78;101210.22;5044827;28;20065;-45
2023/04/09 01:08:54;;;;;;;8.05;2.53;;;;;;;8.93;75.13;101211.34;5048790;28;20037;-46
2023/04/09 01:11:39;;;;;;;6.57;2.60;;;;;;;8.91;75.11;101205.31;5038398;28;20060;-46
2023/04/09 01:14:28;;;;;;;9.35;2.65;;;;;;;8.90;75.17;101203.69;5017974;28;20037;-46
2023/04/09 01:17:02;;;;;;;6.32;2.25;;;;;;;8.88;75.30;101200.44;5045575;28;20544;-46
2023/04/09 01:19:31;;;;;;;4.85;3.30;;;;;;;8.88;75.29;101197.69;5043782;28;20063;-46
2023/04/09 01:21:59;;;;;;;7.15;3.15;;;;;;;8.88;75.16;101208.72;5048437;28;20430;-46
2023/04/09 01:24:50;;;;;;;7.45;2.67;;;;;;;8.86;75.30;101202.72;5041533;28;20045;-47
2023/04/09 01:27:17;;;;;;;13.88;2.88;;;;;;;8.83;75.34;101197.84;5026374;28;20037;-46
2023/04/09 01:29:46;;;;;;;7.18;3.08;;;;;;;8.80;75.49;101187.44;5048598;28;20049;-46
2023/04/09 01:32:17;;;;;;;6.65;3.08;;;;;;;8.78;75.57;101189.72;5043181;28;20049;-46
2023/04/09 01:34:46;;;;;;;5.68;3.25;;;;;;;8.77;75.68;101190.03;5043787;28;20099;-46
2023/04/09 01:37:15;;;;;;;11.15;3.35;;;;;;;8.76;75.75;101180.13;5048259;28;20049;-46
2023/04/09 01:39:43;;;;;;;6.38;3.47;;;;;;;8.74;75.92;101177.69;5048135;28;20040;-47
2023/04/09 01:42:11;;;;;;;7.13;2.90;;;;;;;8.76;75.89;101169.09;5048083;28;20049;-47
2023/04/09 01:44:40;;;;;;;11.82;3.60;;;;;;;8.75;76.01;101162.75;5046078;28;20033;-46
2023/04/09 01:47:08;;;;;;;12.57;3.20;;;;;;;8.77;76.09;101167.94;5046771;28;20513;-50
2023/04/09 01:49:37;;;;;;;13.02;3.35;;;;;;;8.77;75.89;101166.00;5033330;28;20043;-46
2023/04/09 01:52:04;;;;;;;14.27;4.53;;;;;;;8.77;75.92;101165.19;5047886;28;20060;-47
2023/04/09 01:54:31;;;;;;;10.05;3.45;;;;;;;8.78;75.91;101173.16;5044413;28;20053;-46
2023/04/09 01:56:58;;;;;;;5.97;3.25;;;;;;;8.77;75.90;101167.94;5045209;28;20057;-48
2023/04/09 01:59:25;;;;;;;13.10;3.08;;;;;;;8.78;75.86;101155.78;5050093;28;20059;-46
2023/04/09 02:02:04;;;;;;;8.38;2.58;;;;;;;8.78;75.54;101153.00;5050837;28;20077;-47
2023/04/09 02:04:45;;;;;;;11.95;3.10;;;;;;;8.79;75.96;101147.16;5039954;28;20096;-48
2023/04/09 02:07:27;;;;;;;8.23;2.70;;;;;;;8.79;75.84;101130.59;5046206;28;20399;-46
2023/04/09 02:09:54;;;;;;;8.85;2.85;;;;;;;8.77;76.10;101105.25;5048752;28;20077;-46
2023/04/09 02:12:24;;;;;;;11.27;2.97;;;;;;;8.79;76.03;101116.78;5051366;28;20048;-47
2023/04/09 02:14:53;;;;;;;7.35;2.70;;;;;;;8.79;75.99;101094.69;5050960;28;20139;-47
2023/04/09 02:17:20;;;;;;;8.70;3.15;;;;;;;8.77;76.29;101105.25;5051543;28;20053;-48
2023/04/09 02:19:47;;;;;;;10.65;3.40;;;;;;;8.78;76.02;101106.06;5049881;28;20045;-46
2023/04/09 02:22:15;;;;;;;8.52;3.15;;;;;;;8.77;76.20;101110.78;5044693;28;20048;-46
2023/04/09 02:24:42;;;;;;;9.88;3.72;;;;;;;8.76;76.28;101120.22;5043198;28;20041;-46
2023/04/09 02:27:09;;;;;;;6.97;2.78;;;;;;;8.75;76.35;101126.03;5028166;28;20079;-49
2023/04/09 02:29:36;;;;;;;10.13;3.30;;;;;;;8.73;76.47;101126.38;5051240;28;20052;-46
2023/04/09 02:32:02;;;;;;;14.10;4.05;;;;;;;8.74;76.61;101129.94;5051106;28;20483;-46
2023/04/09 02:34:29;;;;;;;18.15;4.22;;;;;;;8.73;76.73;101134.66;5050883;28;20148;-46
2023/04/09 02:36:56;;;;;;;11.25;4.05;;;;;;;8.73;76.77;101137.44;5042334;28;20048;-46
2023/04/09 02:39:23;;;;;;;9.60;3.58;;;;;;;8.70;77.02;101137.25;5046084;28;20050;-46
2023/04/09 02:41:49;;;;;;;15.25;2.92;;;;;;;8.70;77.34;101137.25;5050838;28;20063;-48
2023/04/09 02:44:16;;;;;;;13.25;4.82;;;;;;;8.69;77.35;101136.44;5041006;28;20041;-47
2023/04/09 02:46:45;;;;;;;8.65;2.40;;;;;;;8.68;77.42;101129.31;5050808;28;20044;-46
2023/04/09 02:49:11;;;;;;;12.32;2.50;;;;;;;8.67;77.55;101138.72;5050622;28;20079;-46
2023/04/09 02:51:38;;;;;;;11.40;3.20;;;;;;;8.66;77.52;101120.50;5041765;28;20278;-46
2023/04/09 02:54:05;;;;;;;5.55;2.83;;;;;;;8.67;77.69;101121.34;5047304;28;20057;-46
2023/04/09 02:56:32;;;;;;;7.30;2.63;;;;;;;8.66;77.82;101126.03;5041872;28;20049;-46
2023/04/09 02:58:58;;;;;;;6.53;2.53;;;;;;;8.63;77.98;101118.38;5047078;28;20055;-46
2023/04/09 03:01:25;;;;;;;16.33;3.63;;;;;;;8.63;78.08;101120.38;5048194;22;20046;-44
2023/04/09 03:03:52;;;;;;;9.55;2.58;;;;;;;8.60;78.17;101110.78;4991686;28;20132;-44
2023/04/09 03:06:18;;;;;;;13.02;4.20;;;;;;;8.60;78.06;101110.78;4991506;28;20586;-45
2023/04/09 03:08:45;;;;;;;8.23;2.47;;;;;;;8.61;78.13;101100.53;4991516;28;20041;-45
2023/04/09 03:11:12;;;;;;;4.68;2.10;;;;;;;8.59;78.29;101092.59;4989909;28;20500;-44
2023/04/09 03:13:38;;;;;;;9.60;2.75;;;;;;;8.58;78.13;101089.00;4991769;28;20729;-44
2023/04/09 03:16:05;;;;;;;7.10;2.20;;;;;;;8.58;78.19;101090.94;4989363;28;20049;-44
2023/04/09 03:18:32;;;;;;;7.40;2.35;;;;;;;8.58;78.36;101077.97;4991086;28;20052;-44
2023/04/09 03:21:04;;;;;;;9.05;3.15;;;;;;;8.59;78.33;101076.03;4991266;28;20050;-51
2023/04/09 03:23:33;;;;;;;8.93;2.17;;;;;;;8.58;78.30;101075.22;4978781;28;20054;-43
2023/04/09 03:26:05;;;;;;;10.80;2.55;;;;;;;8.60;78.50;101060.28;5001613;28;20065;-41
2023/04/09 03:28:31;;;;;;;4.88;2.50;;;;;;;8.59;78.24;101056.72;4989900;28;20116;-42
2023/04/09 03:30:58;;;;;;;7.70;2.47;;;;;;;8.59;78.36;101053.97;4991220;28;20377;-42
2023/04/09 03:33:25;;;;;;;16.25;2.53;;;;;;;8.60;78.35;101060.28;4973627;28;20057;-41
2023/04/09 03:35:52;;;;;;;8.60;2.20;;;;;;;8.59;78.35;101051.19;4984696;28;20156;-42
2023/04/09 03:38:18;;;;;;;9.57;3.13;;;;;;;8.59;78.34;101042.91;4990821;28;20042;-41
2023/04/09 03:40:45;;;;;;;10.52;2.63;;;;;;;8.58;78.38;101042.09;4990035;28;20141;-41
2023/04/09 03:43:12;;;;;;;11.00;3.72;;;;;;;8.59;78.30;101037.41;4989481;28;20499;-41
2023/04/09 03:45:39;;;;;;;9.20;3.00;;;;;;;8.62;78.39;101038.69;4990891;28;20070;-49
2023/04/09 03:48:06;;;;;;;10.77;3.17;;;;;;;8.60;78.47;101036.28;4991564;28;20058;-41
2023/04/09 03:50:40;;;;;;;8.95;2.80;;;;;;;8.60;78.49;101028.00;4990448;28;20054;-41
2023/04/09 03:53:07;;;;;;;7.10;2.42;;;;;;;8.62;78.54;101041.44;4989681;28;20044;-42
2023/04/09 03:55:33;;;;;;;11.70;3.53;;;;;;;8.62;78.69;101042.28;4990066;28;20054;-43
2023/04/09 03:58:00;;;;;;;12.05;3.15;;;;;;;8.62;78.63;101031.22;4987340;28;20132;-43
2023/04/09 04:00:27;;;;;;;8.88;2.83;;;;;;;8.63;78.65;101029.28;4997698;28;20038;-43
2023/04/09 04:02:54;;;;;;;9.40;3.78;;;;;;;8.61;78.97;101015.78;4990129;28;20066;-43
2023/04/09 04:05:25;;;;;;;13.65;3.25;;;;;;;8.60;78.92;101028.00;5002082;28;20140;-43
2023/04/09 04:07:52;;;;;;;16.58;5.28;;;;;;;8.58;79.18;101014.50;4990198;28;20129;-43
2023/04/09 04:10:19;;;;;;;8.75;4.10;;;;;;;8.58;79.21;101028.31;4990273;28;20145;-49
2023/04/09 04:12:46;;;;;;;19.02;5.60;;;;;;;8.57;79.37;101012.91;4987643;28;20041;-41
2023/04/09 04:15:13;;;;;;;18.65;5.68;;;;;;;8.57;79.23;101012.09;4988729;28;20049;-42
2023/04/09 04:17:39;;;;;;;22.60;7.20;;;;;;;8.57;79.60;101003.81;4990135;28;20046;-42
2023/04/09 04:20:07;;;;;;;21.30;5.43;;;;;;;8.54;79.71;100990.66;4990333;28;20049;-42
2023/04/09 04:22:34;;;;;;;17.00;5.03;;;;;;;8.53;79.77;100989.84;4986799;28;20369;-41
2023/04/09 04:25:02;;;;;;;22.50;4.45;;;;;;;8.52;80.07;100981.88;4992236;28;20574;-46
2023/04/09 04:27:29;;;;;;;22.63;8.07;;;;;;;8.53;80.07;100977.97;4990467;28;20149;-51
2023/04/09 04:29:57;;;;;;;18.05;5.25;;;;;;;8.52;80.06;100977.16;4990417;28;20038;-42
2023/04/09 04:32:24;;;;;;;13.13;5.18;;;;;;;8.52;80.29;100970.84;4988473;28;20046;-42
2023/04/09 04:34:51;;;;;;;15.65;4.95;;;;;;;8.50;80.55;100970.34;4989208;28;20042;-47
2023/04/09 04:37:18;;;;;;;11.82;4.50;;;;;;;8.49;80.62;100966.81;4990227;28;20451;-48
2023/04/09 04:39:45;;;;;;;14.27;6.95;;;;;;;8.48;80.69;100975.38;4989195;28;20058;-43
2023/04/09 04:42:11;;;;;;;11.38;4.95;;;;;;;8.47;80.72;100969.06;4987086;28;20046;-41
2023/04/09 04:44:38;;;;;;;15.35;5.60;;;;;;;8.47;80.87;100960.00;4989537;28;20488;-42
2023/04/09 04:47:05;;;;;;;16.60;5.88;;;;;;;8.45;80.95;100938.22;4991737;28;20053;-42
2023/04/09 04:49:31;;;;;;;14.50;5.80;;;;;;;8.44;81.19;100944.91;4990129;28;20046;-48
2023/04/09 04:51:58;;;;;;;16.13;5.43;;;;;;;8.45;81.35;100948.44;4988454;28;20042;-42
2023/04/09 04:54:25;;;;;;;18.60;5.10;;;;;;;8.44;81.48;100944.09;4989375;28;20063;-42
2023/04/09 04:56:51;;;;;;;14.70;5.47;;;;;;;8.42;81.68;100946.34;4990006;28;20089;-41
2023/04/09 04:59:18;;;;;;;17.70;5.68;;;;;;;8.41;81.88;100941.97;4990013;28;20035;-42
2023/04/09 05:01:45;;;;;;;7.45;3.30;;;;;;;8.41;82.16;100944.72;4988332;28;20061;-41
2023/04/09 05:04:11;;;;;;;13.10;4.20;;;;;;;8.39;82.36;100945.03;4989280;28;20077;-41
2023/04/09 05:06:38;;;;;;;20.00;3.90;;;;;;;8.39;82.27;100944.25;4989619;28;20108;-42
2023/04/09 05:09:05;;;;;;;7.05;3.33;;;;;;;8.39;82.42;100944.25;4989501;28;20046;-42
2023/04/09 05:11:31;;;;;;;21.80;5.32;;;;;;;8.39;82.77;100935.97;4989351;28;20050;-42
2023/04/09 05:13:58;;;;;;;10.15;3.25;;;;;;;8.39;82.91;100930.44;5002252;28;20042;-43
2023/04/09 05:16:25;;;;;;;11.18;3.10;;;;;;;8.40;83.14;100923.78;4986962;28;20514;-45
2023/04/09 05:18:52;;;;;;;13.93;3.78;;;;;;;8.38;83.47;100917.78;4989668;28;20089;-41
2023/04/09 05:21:19;;;;;;;14.68;4.93;;;;;;;8.39;83.50;100927.69;4982522;28;20522;-41
2023/04/09 05:23:46;;;;;;;14.65;4.68;;;;;;;8.39;83.66;100924.94;4987367;28;20762;-42
2023/04/09 05:26:13;;;;;;;12.88;4.45;;;;;;;8.38;83.57;100926.06;5000896;28;20045;-41
2023/04/09 05:28:40;;;;;;;11.50;3.72;;;;;;;8.38;83.97;100926.06;4989343;28;20049;-43
2023/04/09 05:31:11;;;;;;;14.25;3.55;;;;;;;8.36;84.23;100939.38;4995115;28;20046;-41
2023/04/09 05:33:39;;;;;;;11.82;4.30;;;;;;;8.36;84.18;100928.34;4990623;28;20058;-42
2023/04/09 05:36:06;;;;;;;11.85;4.28;;;;;;;8.36;84.20;100942.13;4992805;28;20132;-41
2023/04/09 05:38:33;;;;;;;14.88;4.20;;;;;;;8.35;84.24;100930.28;4991591;28;20050;-41
2023/04/09 05:41:00;;;;;;;17.20;4.40;;;;;;;8.37;84.35;100930.75;4992663;28;20694;-42
2023/04/09 05:43:27;;;;;;;14.95;3.85;;;;;;;8.37;84.54;100928.00;4991544;28;20061;-42
2023/04/09 05:45:53;;;;;;;16.58;5.68;;;;;;;8.38;84.73;100934.34;4992170;28;20074;-42
2023/04/09 05:48:22;;;;;;;13.57;3.40;;;;;;;8.38;84.72;100926.06;4992916;28;20123;-41
2023/04/09 05:50:51;;;;;;;10.93;3.78;;;;;;;8.39;84.81;100924.94;4989894;28;20046;-50
2023/04/09 05:53:21;;;;;;;14.68;4.32;;;;;;;8.39;85.01;100935.97;4993323;28;20125;-41
2023/04/09 05:55:48;;;;;;;16.48;4.82;;;;;;;8.39;85.08;100934.00;4994466;28;20093;-41
2023/04/09 05:58:15;;;;;;;14.63;5.43;;;;;;;8.39;85.11;100928.47;4992770;28;20062;-42
2023/04/09 06:00:42;;;;;;;21.52;4.68;;;;;;;8.40;85.15;100938.38;5000332;28;20511;-44
2023/04/09 06:03:08;;;;;;;13.98;4.45;;;;;;;8.41;85.36;100930.94;4993278;28;20112;-41
2023/04/09 06:05:35;;;;;;;22.10;5.90;;;;;;;8.41;85.33;100933.69;4992532;28;20053;-42
2023/04/09 06:08:02;;;;;;;16.92;5.93;;;;;;;8.43;85.32;100934.16;4992549;28;20042;-42
2023/04/09 06:10:31;;;;;;;17.45;4.43;;;;;;;8.43;85.46;100934.97;4992729;28;20038;-49
2023/04/09 06:12:58;;;;;;;11.07;3.90;;;;;;;8.44;85.47;100935.81;4989900;28;20064;-42
2023/04/09 06:15:25;;;;;;;14.00;4.13;;;;;;;8.45;85.38;100948.44;4992360;28;20054;-42
2023/04/09 06:17:51;;;;;;;17.50;4.00;;;;;;;8.47;85.34;100952.50;4992758;28;20046;-42
2023/04/09 06:20:18;;;;;;;17.10;5.50;;;;;;;8.50;85.31;100956.56;4989729;28;20057;-42
2023/04/09 06:22:45;;;;;;;24.60;5.50;;;;;;;8.52;85.41;100954.31;4988078;28;20522;-41
2023/04/09 06:25:12;;;;;;;17.50;5.15;;;;;;;8.55;85.51;100948.91;4996229;28;20077;-41
2023/04/09 06:27:38;;;;;;;12.25;5.35;;;;;;;8.57;85.38;100945.84;4999186;28;20050;-42
2023/04/09 06:30:06;;;;;;;16.50;4.80;;;;;;;8.61;85.56;100934.94;4992454;28;20484;-42
2023/04/09 06:32:32;;;;;;;14.10;4.68;;;;;;;8.65;85.47;100924.88;4992126;28;20053;-42
2023/04/09 06:35:17;;;;;;;11.77;5.03;;;;;;;8.69;85.37;100934.94;4990632;28;20077;-44
2023/04/09 06:37:44;;;;;;;14.13;5.28;;;;;;;8.73;85.38;100940.63;4990334;28;20054;-42
2023/04/09 06:40:11;;;;;;;13.70;5.45;;;;;;;8.76;85.33;100939.97;4992094;28;20072;-46
2023/04/09 06:42:39;;;;;;;12.13;4.65;;;;;;;8.80;85.39;100933.47;4991992;28;20520;-41
2023/04/09 06:45:07;;;;;;;12.73;5.13;;;;;;;8.83;85.32;100920.94;4991637;28;20038;-44
2023/04/09 06:47:34;;;;;;;15.93;4.55;;;;;;;8.85;85.15;100919.47;4991919;28;20058;-42
2023/04/09 06:50:02;;;;;;;18.23;5.10;;;;;;;8.88;85.21;100916.06;4988797;28;20050;-44
2023/04/09 06:52:29;;;;;;;11.40;4.30;;;;;;;8.91;85.06;100915.41;4988107;28;20050;-42
2023/04/09 06:54:55;;;;;;;15.23;4.95;;;;;;;8.92;85.19;100905.97;4992141;28;20516;-42
2023/04/09 06:57:22;;;;;;;12.15;5.28;;;;;;;8.95;84.91;100902.53;4991435;28;20042;-42
2023/04/09 06:59:49;;;;;;;16.60;5.40;;;;;;;9.00;84.98;100905.13;4995782;28;20046;-42
2023/04/09 07:02:16;;;;;;;17.48;5.05;;;;;;;9.02;85.08;100897.34;5032279;28;20049;-42
2023/04/09 07:04:43;;;;;;;17.90;7.72;;;;;;;9.03;85.04;100901.69;5049669;28;20044;-43
2023/04/09 07:07:09;;;;;;;20.88;5.00;;;;;;;9.04;84.97;100900.56;5048251;28;20079;-42
2023/04/09 07:09:36;;;;;;;17.70;5.53;;;;;;;9.06;85.01;100891.94;5049040;28;20045;-42
2023/04/09 07:12:03;;;;;;;19.83;8.25;;;;;;;9.09;84.96;100889.34;5050737;28;20049;-42
2023/04/09 07:14:29;;;;;;;18.48;5.90;;;;;;;9.12;84.89;100885.91;5050566;28;20486;-48
2023/04/09 07:16:56;;;;;;;15.70;5.07;;;;;;;9.15;84.86;100878.91;5050655;28;20041;-42
2023/04/09 07:19:23;;;;;;;13.40;5.47;;;;;;;9.18;84.88;100870.78;5049581;28;20048;-42
2023/04/09 07:21:50;;;;;;;18.48;5.40;;;;;;;9.24;84.83;100867.84;5048838;28;20041;-42
2023/04/09 07:24:17;;;;;;;11.75;5.60;;;;;;;9.27;84.71;100864.38;5047699;28;20040;-42
2023/04/09 07:26:43;;;;;;;14.63;5.10;;;;;;;9.33;84.63;100858.34;5062264;28;20059;-42
2023/04/09 07:29:10;;;;;;;15.77;5.28;;;;;;;9.36;84.76;100852.16;5050478;28;20076;-42
2023/04/09 07:31:37;;;;;;;10.82;4.53;;;;;;;9.42;84.70;100850.00;5049737;28;20522;-42
2023/04/09 07:34:05;;;;;;;11.07;5.18;;;;;;;9.42;84.74;100847.25;5048030;28;20048;-42
2023/04/09 07:36:31;;;;;;;16.25;4.90;;;;;;;9.47;84.55;100845.09;5049753;28;20079;-42
2023/04/09 07:38:58;;;;;;;15.18;5.55;;;;;;;9.52;84.69;100844.09;5049459;28;20098;-45
2023/04/09 07:41:25;;;;;;;18.52;4.65;;;;;;;9.55;84.55;100837.88;5049490;28;20040;-43
2023/04/09 07:43:51;;;;;;;17.50;5.10;;;;;;;9.55;84.37;100835.13;5049783;28;20045;-42
2023/04/09 07:46:20;;;;;;;15.43;5.35;;;;;;;9.56;84.44;100820.94;5050388;28;20055;-43
2023/04/09 07:48:48;;;;;;;17.75;5.30;;;;;;;9.60;84.57;100827.44;5032479;28;20495;-41
2023/04/09 07:51:15;;;;;;;17.30;5.75;;;;;;;9.63;84.43;100832.31;5048458;28;20422;-45
2023/04/09 07:53:42;;;;;;;17.83;5.82;;;;;;;9.67;84.38;100815.84;5049102;28;20483;-42
2023/04/09 07:56:09;;;;;;;23.30;7.50;;;;;;;9.71;84.47;100814.84;5048592;28;20047;-42
2023/04/09 07:58:36;;;;;;;15.63;5.47;;;;;;;9.69;84.57;100824.59;5049363;28;20083;-42
2023/04/09 08:01:04;;;;;;;19.25;5.20;;;;;;;9.70;84.28;100818.75;5051122;28;20043;-42
2023/04/09 08:03:31;;;;;;;19.45;5.32;;;;;;;9.70;84.57;100812.41;5049837;28;20041;-44
2023/04/09 08:05:58;;;;;;;20.08;6.45;;;;;;;9.73;84.61;100806.19;5049079;28;20139;-43
2023/04/09 08:08:24;;;;;;;14.70;5.25;;;;;;;9.76;84.83;100811.06;5049047;28;20107;-42
2023/04/09 08:10:51;;;;;;;19.77;5.93;;;;;;;9.81;84.85;100813.63;5049208;28;20045;-44
2023/04/09 08:13:19;;;;;;;14.45;5.43;;;;;;;9.91;84.73;100813.19;5049179;28;20111;-45
2023/04/09 08:15:46;;;;;;;16.85;5.88;;;;;;;10.03;84.66;100812.44;5048444;28;20095;-43
2023/04/09 08:18:13;;;;;;;12.75;5.85;;;;;;;10.12;84.80;100807.63;5046991;28;20051;-44
2023/04/09 08:20:43;;;;;;;19.63;6.07;;;;;;;10.19;84.46;100814.25;5047337;28;20507;-50
2023/04/09 08:23:11;;;;;;;11.30;5.57;;;;;;;10.25;84.43;100804.59;5047988;28;20088;-45
2023/04/09 08:25:39;;;;;;;18.42;6.15;;;;;;;10.28;84.33;100812.22;5056402;28;20078;-49
2023/04/09 08:28:07;;;;;;;11.48;5.57;;;;;;;10.29;84.43;100811.06;5052514;28;20037;-49
2023/04/09 08:30:33;;;;;;;12.02;5.63;;;;;;;10.29;84.29;100818.56;5048832;28;20094;-53
2023/04/09 08:33:01;;;;;;;18.60;4.78;;;;;;;10.29;84.38;100801.97;5047428;28;20051;-47
2023/04/09 08:35:31;;;;;;;10.52;5.10;;;;;;;10.24;84.00;100789.16;5049025;28;20045;-46
2023/04/09 08:37:58;;;;;;;15.70;5.35;;;;;;;10.27;84.12;100780.16;5050132;28;20545;-52
2023/04/09 08:40:25;;;;;;;18.88;4.10;;;;;;;10.36;84.13;100774.53;5048653;28;20052;-46
2023/04/09 08:42:58;;;;;;;13.57;4.63;;;;;;;10.47;83.98;100783.19;5045013;28;20076;-46
2023/04/09 08:45:24;;;;;;;15.98;5.20;;;;;;;10.56;83.90;100797.75;5049107;28;20041;-48
2023/04/09 08:47:51;;;;;;;12.35;5.85;;;;;;;10.65;83.79;100807.56;5046967;28;20045;-49
2023/04/09 08:50:19;;;;;;;13.65;4.90;;;;;;;10.67;83.65;100796.16;5045177;28;20052;-47
2023/04/09 08:52:49;;;;;;;10.07;3.83;;;;;;;10.76;83.54;100805.97;5048866;28;20180;-46
2023/04/09 08:55:16;;;;;;;14.93;4.70;;;;;;;10.85;83.22;100792.81;5053785;28;20057;-46
2023/04/09 08:57:42;;;;;;;25.25;5.45;;;;;;;10.96;83.03;100793.16;5046336;28;20212;-47
2023/04/09 09:00:10;;;;;;;12.75;5.60;;;;;;;11.06;82.91;100787.16;5055164;28;20066;-46
2023/04/09 09:02:38;;;;;;;14.57;4.38;;;;;;;11.19;82.80;100785.19;5046629;28;20053;-51
2023/04/09 09:05:06;;;;;;;17.58;6.03;;;;;;;11.37;82.70;100779.03;5051834;28;20135;-51
2023/04/09 09:07:33;;;;;;;13.13;4.15;;;;;;;11.58;82.57;100774.13;5042603;28;20140;-46
2023/04/09 09:10:03;;;;;;;10.25;5.20;;;;;;;11.94;82.26;100772.41;5039039;28;20052;-47
2023/04/09 09:12:37;;;;;;;14.35;5.50;;;;;;;12.33;81.66;100779.84;5052464;28;20052;-48
2023/04/09 09:15:23;;;;;;;8.15;4.43;;;;;;;12.57;81.27;100773.31;5049242;28;20498;-46
2023/04/09 09:17:57;;;;;;;10.98;4.63;;;;;;;12.59;80.57;100771.78;5051671;28;20037;-49
2023/04/09 09:20:25;;;;;;;15.02;5.10;;;;;;;12.53;80.28;100770.44;5052069;28;20048;-46
2023/04/09 09:22:54;;;;;;;12.85;5.15;;;;;;;12.47;80.02;100762.75;5051766;28;20048;-46
2023/04/09 09:25:23;;;;;;;13.38;4.50;;;;;;;12.35;79.74;100757.25;5056216;28;20061;-49
2023/04/09 09:27:50;;;;;;;11.38;5.13;;;;;;;12.29;79.54;100750.34;5044270;28;20037;-47
2023/04/09 09:30:26;;;;;;;12.73;4.95;;;;;;;12.26;79.56;100745.53;5046081;28;20047;-51
2023/04/09 09:33:03;;;;;;;12.07;5.85;;;;;;;12.27;79.28;100739.63;5044399;28;20037;-51
2023/04/09 09:35:30;;;;;;;11.40;4.70;;;;;;;12.26;78.45;100729.66;5048495;28;20049;-48
2023/04/09 09:38:02;;;;;;;18.70;5.60;;;;;;;12.25;78.14;100733.63;5051674;28;20075;-46
2023/04/09 09:40:28;;;;;;;13.80;4.85;;;;;;;12.19;78.13;100724.75;5051923;28;20090;-46
2023/04/09 09:42:56;;;;;;;9.95;4.68;;;;;;;12.15;78.00;100718.28;5051609;28;20108;-49
2023/04/09 09:45:24;;;;;;;17.83;6.18;;;;;;;12.11;77.98;100724.91;5052111;28;20566;-53
2023/04/09 09:47:52;;;;;;;13.60;5.65;;;;;;;12.05;77.75;100724.34;5050311;28;20049;-48
2023/04/09 09:50:24;;;;;;;11.73;4.60;;;;;;;12.01;77.51;100717.09;5051955;28;20128;-48
2023/04/09 09:53:02;;;;;;;13.68;6.03;;;;;;;11.96;77.34;100725.69;5051641;28;20475;-49
2023/04/09 09:55:32;;;;;;;16.40;5.40;;;;;;;11.93;77.56;100720.84;5044169;28;20057;-51
2023/04/09 09:58:02;;;;;;;15.88;5.75;;;;;;;11.94;77.13;100717.72;5051528;28;20613;-54
2023/04/09 10:00:31;;;;;;;15.30;5.45;;;;;;;11.96;77.23;100706.28;5055911;28;20048;-56
2023/04/09 10:03:07;;;;;;;15.23;6.43;;;;;;;11.90;76.84;100711.28;5051872;28;20060;-48
2023/04/09 10:05:35;;;;;;;12.25;5.15;;;;;;;11.86;76.91;100704.03;5051284;28;20568;-49
2023/04/09 10:08:03;;;;;;;13.73;5.32;;;;;;;11.82;76.70;100712.25;5051325;28;20048;-50
2023/04/09 10:10:30;;;;;;;10.73;6.20;;;;;;;11.78;76.47;100713.31;5049002;28;20075;-50
2023/04/09 10:12:58;;;;;;;12.05;6.07;;;;;;;11.69;76.49;100707.09;5051746;28;20048;-48
2023/04/09 10:15:27;;;;;;;14.18;6.38;;;;;;;11.67;76.55;100698.31;5049850;28;20487;-50
2023/04/09 10:17:55;;;;;;;20.88;5.70;;;;;;;11.61;76.51;100701.34;5052094;28;20052;-50
2023/04/09 10:20:27;;;;;;;16.05;5.50;;;;;;;11.57;76.43;100691.28;5037122;28;20719;-46
2023/04/09 10:22:56;;;;;;;12.68;6.47;;;;;;;11.54;76.35;100700.31;5051266;28;20073;-48
2023/04/09 10:25:23;;;;;;;13.00;6.72;;;;;;;11.50;76.52;100699.41;5056317;28;20106;-51
2023/04/09 10:28:01;;;;;;;19.83;6.20;;;;;;;11.46;76.78;100687.41;5052683;28;20071;-47
2023/04/09 10:30:35;;;;;;;22.00;6.90;;;;;;;11.43;77.00;100680.63;5050800;28;20048;-46
2023/04/09 10:33:28;;;;;;;14.07;6.00;;;;;;;11.37;77.09;100681.19;5050948;28;20049;-50
2023/04/09 10:36:00;;;;;;;17.52;7.10;;;;;;;11.33;77.04;100669.22;5048896;28;20148;-47
2023/04/09 10:38:34;;;;;;;29.38;8.60;;;;;;;11.32;77.11;100675.91;5048860;28;20049;-47
2023/04/09 10:41:14;;;;;;;20.67;6.30;;;;;;;11.29;77.42;100663.56;5050846;28;20486;-51
2023/04/09 10:43:42;;;;;;;17.25;7.22;;;;;;;11.31;77.57;100654.88;5050848;28;20053;-47
2023/04/09 10:46:44;;;;;;;14.77;7.25;;;;;;;11.31;77.79;100669.56;5050673;28;20402;-47
2023/04/09 10:49:15;;;;;;;;;;;;;;;11.30;77.85;100643.00;5007567;28;20056;-45
2023/04/09 10:52:02;;;;;;;17.13;7.50;;;;;;;11.31;77.86;100652.94;5039238;28;19927;-46
2023/04/09 10:54:32;;;;;;;21.77;7.20;;;;;;;11.33;77.98;100647.81;5049884;28;20044;-43
2023/04/09 10:57:09;;;;;;;20.60;7.15;;;;;;;11.34;78.05;100618.16;5059211;28;20052;-51
2023/04/09 10:59:41;;;;;;;20.42;8.30;;;;;;;11.37;78.03;100629.34;5040555;28;20502;-46
2023/04/09 11:02:28;;;;;;;15.70;6.78;;;;;;;11.38;78.17;100628.19;5050421;28;20049;-46
2023/04/09 11:05:01;;;;;;;25.35;7.25;;;;;;;11.40;78.09;100614.78;5031756;28;20045;-45
2023/04/09 11:07:31;;;;;;;19.13;7.70;;;;;;;11.39;78.30;100621.47;5044480;28;20503;-45
2023/04/09 11:09:57;;;;;;;21.73;9.27;;;;;;;11.42;78.39;100601.38;5035875;28;20055;-48
2023/04/09 11:12:24;;;;;;;17.98;7.63;;;;;;;11.44;78.42;100603.78;5044475;28;20115;-46
2023/04/09 11:14:51;;;;;;;17.27;7.65;;;;;;;11.44;78.64;100607.34;5042598;28;20045;-48
2023/04/09 11:17:18;;;;;;;30.08;8.60;;;;;;;11.46;78.73;100612.56;5038399;28;20041;-47
2023/04/09 11:19:45;;;;;;;17.00;7.82;;;;;;;11.48;78.74;100619.38;5047109;28;20086;-46
2023/04/09 11:22:12;;;;;;;25.63;9.50;;;;;;;11.47;78.83;100612.19;5050700;28;20671;-50
2023/04/09 11:24:43;;;;;;;24.83;10.85;;;;;;;11.50;79.06;100611.50;5047241;28;20139;-56
2023/04/09 11:27:10;;;;;;;27.80;8.50;;;;;;;11.58;78.95;100624.41;5046080;28;20047;-48
2023/04/09 11:29:36;;;;;;;23.08;9.02;;;;;;;11.69;79.01;100615.56;5049537;28;20068;-50
2023/04/09 11:32:04;;;;;;;21.63;8.05;;;;;;;11.81;78.92;100612.75;5046774;28;20052;-49